sensor_id;sensor_type;location;lat;lon;timestamp;P1;durP1;ratioP1;P2;durP2;ratioP2
12554;SDS011;6343;50.868;4.700;2022-11-15T00:02:22;17.43;;;10.53;;
12554;SDS011;6343;50.868;4.700;2022-11-15T00:04:48;19.30;;;10.53;;
12554;SDS011;6343;50.868;4.700;2022-11-15T00:07:14;18.50;;;11.40;;
12554;SDS011;6343;50.868;4.700;2022-11-15T00:09:40;20.13;;;11.97;;
12554;SDS011;6343;50.868;4.700;2022-11-15T00:12:06;16.87;;;11.13;;
12554;SDS011;6343;50.868;4.700;2022-11-15T00:14:32;16.53;;;10.33;;
12554;SDS011;6343;50.868;4.700;2022-11-15T00:16:58;16.93;;;10.63;;
12554;SDS011;6343;50.868;4.700;2022-11-15T00:19:24;15.87;;;11.07;;
12554;SDS011;6343;50.868;4.700;2022-11-15T00:21:50;17.47;;;10.70;;
12554;SDS011;6343;50.868;4.700;2022-11-15T00:24:16;17.57;;;11.43;;
12554;SDS011;6343;50.868;4.700;2022-11-15T00:26:42;19.23;;;12.03;;
12554;SDS011;6343;50.868;4.700;2022-11-15T00:29:08;15.50;;;10.57;;
12554;SDS011;6343;50.868;4.700;2022-11-15T00:31:34;16.40;;;10.40;;
12554;SDS011;6343;50.868;4.700;2022-11-15T00:34:00;17.43;;;10.23;;
12554;SDS011;6343;50.868;4.700;2022-11-15T00:36:26;17.83;;;10.93;;
12554;SDS011;6343;50.868;4.700;2022-11-15T00:38:52;16.67;;;10.97;;
12554;SDS011;6343;50.868;4.700;2022-11-15T00:41:19;17.63;;;10.70;;
12554;SDS011;6343;50.868;4.700;2022-11-15T00:43:45;16.10;;;11.57;;
12554;SDS011;6343;50.868;4.700;2022-11-15T00:46:11;18.53;;;11.03;;
12554;SDS011;6343;50.868;4.700;2022-11-15T00:48:37;16.20;;;10.73;;
12554;SDS011;6343;50.868;4.700;2022-11-15T00:51:03;23.90;;;11.20;;
12554;SDS011;6343;50.868;4.700;2022-11-15T00:53:29;17.70;;;11.53;;
12554;SDS011;6343;50.868;4.700;2022-11-15T00:55:55;15.30;;;10.87;;
12554;SDS011;6343;50.868;4.700;2022-11-15T00:58:21;18.37;;;11.17;;
12554;SDS011;6343;50.868;4.700;2022-11-15T01:00:47;17.03;;;11.27;;
12554;SDS011;6343;50.868;4.700;2022-11-15T01:03:13;18.90;;;11.43;;
12554;SDS011;6343;50.868;4.700;2022-11-15T01:05:39;15.73;;;10.57;;
12554;SDS011;6343;50.868;4.700;2022-11-15T01:08:05;16.40;;;11.40;;
12554;SDS011;6343;50.868;4.700;2022-11-15T01:10:33;15.43;;;10.63;;
12554;SDS011;6343;50.868;4.700;2022-11-15T01:12:59;19.23;;;11.50;;
12554;SDS011;6343;50.868;4.700;2022-11-15T01:15:25;17.43;;;11.40;;
12554;SDS011;6343;50.868;4.700;2022-11-15T01:17:51;16.67;;;11.47;;
12554;SDS011;6343;50.868;4.700;2022-11-15T01:20:17;17.23;;;11.57;;
12554;SDS011;6343;50.868;4.700;2022-11-15T01:22:43;16.00;;;10.80;;
12554;SDS011;6343;50.868;4.700;2022-11-15T01:25:10;17.03;;;11.17;;
12554;SDS011;6343;50.868;4.700;2022-11-15T01:27:36;18.57;;;11.67;;
12554;SDS011;6343;50.868;4.700;2022-11-15T01:30:02;17.73;;;12.03;;
12554;SDS011;6343;50.868;4.700;2022-11-15T01:32:29;22.43;;;12.10;;
12554;SDS011;6343;50.868;4.700;2022-11-15T01:34:55;18.37;;;12.27;;
12554;SDS011;6343;50.868;4.700;2022-11-15T01:37:21;16.00;;;10.97;;
12554;SDS011;6343;50.868;4.700;2022-11-15T01:39:47;19.63;;;11.97;;
12554;SDS011;6343;50.868;4.700;2022-11-15T01:42:13;15.97;;;11.47;;
12554;SDS011;6343;50.868;4.700;2022-11-15T01:44:40;17.50;;;11.30;;
12554;SDS011;6343;50.868;4.700;2022-11-15T01:47:12;25.47;;;12.63;;
12554;SDS011;6343;50.868;4.700;2022-11-15T01:49:40;15.83;;;11.53;;
12554;SDS011;6343;50.868;4.700;2022-11-15T01:52:10;21.07;;;12.30;;
12554;SDS011;6343;50.868;4.700;2022-11-15T01:54:38;18.13;;;12.40;;
12554;SDS011;6343;50.868;4.700;2022-11-15T01:57:06;16.83;;;11.23;;
12554;SDS011;6343;50.868;4.700;2022-11-15T01:59:33;22.67;;;11.73;;
12554;SDS011;6343;50.868;4.700;2022-11-15T02:02:00;18.33;;;11.97;;
12554;SDS011;6343;50.868;4.700;2022-11-15T02:04:31;19.63;;;12.67;;
12554;SDS011;6343;50.868;4.700;2022-11-15T02:06:57;16.70;;;11.63;;
12554;SDS011;6343;50.868;4.700;2022-11-15T02:09:24;17.77;;;11.77;;
12554;SDS011;6343;50.868;4.700;2022-11-15T02:11:50;22.83;;;12.60;;
12554;SDS011;6343;50.868;4.700;2022-11-15T02:14:17;19.87;;;11.90;;
12554;SDS011;6343;50.868;4.700;2022-11-15T02:16:50;22.57;;;11.93;;
12554;SDS011;6343;50.868;4.700;2022-11-15T02:24:49;18.00;;;12.43;;
12554;SDS011;6343;50.868;4.700;2022-11-15T02:30:14;19.60;;;11.60;;
12554;SDS011;6343;50.868;4.700;2022-11-15T02:32:42;18.40;;;12.50;;
12554;SDS011;6343;50.868;4.700;2022-11-15T02:35:20;19.70;;;11.17;;
12554;SDS011;6343;50.868;4.700;2022-11-15T02:37:55;16.77;;;11.00;;
12554;SDS011;6343;50.868;4.700;2022-11-15T02:42:50;19.40;;;11.47;;
12554;SDS011;6343;50.868;4.700;2022-11-15T02:45:42;20.70;;;12.07;;
12554;SDS011;6343;50.868;4.700;2022-11-15T02:48:10;15.23;;;10.63;;
12554;SDS011;6343;50.868;4.700;2022-11-15T02:50:36;18.03;;;11.23;;
12554;SDS011;6343;50.868;4.700;2022-11-15T02:53:03;14.83;;;10.73;;
12554;SDS011;6343;50.868;4.700;2022-11-15T02:55:41;16.40;;;11.03;;
12554;SDS011;6343;50.868;4.700;2022-11-15T03:00:58;16.17;;;11.17;;
12554;SDS011;6343;50.868;4.700;2022-11-15T03:03:38;16.40;;;11.37;;
12554;SDS011;6343;50.868;4.700;2022-11-15T03:06:22;18.03;;;11.70;;
12554;SDS011;6343;50.868;4.700;2022-11-15T03:09:02;16.47;;;11.63;;
12554;SDS011;6343;50.868;4.700;2022-11-15T03:11:31;23.23;;;11.33;;
12554;SDS011;6343;50.868;4.700;2022-11-15T03:13:58;19.43;;;11.70;;
12554;SDS011;6343;50.868;4.700;2022-11-15T03:16:46;18.60;;;11.47;;
12554;SDS011;6343;50.868;4.700;2022-11-15T03:19:18;18.67;;;11.33;;
12554;SDS011;6343;50.868;4.700;2022-11-15T03:21:48;18.97;;;11.90;;
12554;SDS011;6343;50.868;4.700;2022-11-15T03:24:14;16.97;;;11.17;;
12554;SDS011;6343;50.868;4.700;2022-11-15T03:26:41;15.73;;;10.97;;
12554;SDS011;6343;50.868;4.700;2022-11-15T03:29:17;17.27;;;11.63;;
12554;SDS011;6343;50.868;4.700;2022-11-15T03:31:47;16.20;;;11.53;;
12554;SDS011;6343;50.868;4.700;2022-11-15T03:36:46;17.97;;;11.57;;
12554;SDS011;6343;50.868;4.700;2022-11-15T03:39:13;15.90;;;10.93;;
12554;SDS011;6343;50.868;4.700;2022-11-15T03:41:42;18.13;;;11.30;;
12554;SDS011;6343;50.868;4.700;2022-11-15T03:44:19;16.87;;;10.73;;
12554;SDS011;6343;50.868;4.700;2022-11-15T03:46:47;17.17;;;10.87;;
12554;SDS011;6343;50.868;4.700;2022-11-15T03:49:17;17.37;;;11.53;;
12554;SDS011;6343;50.868;4.700;2022-11-15T03:51:44;15.50;;;10.97;;
12554;SDS011;6343;50.868;4.700;2022-11-15T03:54:11;13.93;;;10.17;;
12554;SDS011;6343;50.868;4.700;2022-11-15T03:56:38;14.43;;;9.67;;
12554;SDS011;6343;50.868;4.700;2022-11-15T03:59:04;14.27;;;10.13;;
12554;SDS011;6343;50.868;4.700;2022-11-15T04:01:30;12.43;;;9.23;;
12554;SDS011;6343;50.868;4.700;2022-11-15T04:03:56;16.43;;;10.07;;
12554;SDS011;6343;50.868;4.700;2022-11-15T04:06:22;16.27;;;9.50;;
12554;SDS011;6343;50.868;4.700;2022-11-15T04:08:48;13.60;;;9.50;;
12554;SDS011;6343;50.868;4.700;2022-11-15T04:11:14;14.63;;;8.77;;
12554;SDS011;6343;50.868;4.700;2022-11-15T04:13:40;14.60;;;8.87;;
12554;SDS011;6343;50.868;4.700;2022-11-15T04:16:06;12.33;;;8.67;;
12554;SDS011;6343;50.868;4.700;2022-11-15T04:18:32;13.97;;;8.50;;
12554;SDS011;6343;50.868;4.700;2022-11-15T04:20:58;12.50;;;8.43;;
12554;SDS011;6343;50.868;4.700;2022-11-15T04:23:42;20.17;;;9.20;;
12554;SDS011;6343;50.868;4.700;2022-11-15T04:26:27;11.97;;;8.47;;
12554;SDS011;6343;50.868;4.700;2022-11-15T04:28:53;13.07;;;8.20;;
12554;SDS011;6343;50.868;4.700;2022-11-15T04:31:38;12.97;;;8.40;;
12554;SDS011;6343;50.868;4.700;2022-11-15T04:34:04;12.03;;;8.40;;
12554;SDS011;6343;50.868;4.700;2022-11-15T04:36:30;13.57;;;9.50;;
12554;SDS011;6343;50.868;4.700;2022-11-15T04:39:14;11.77;;;7.63;;
12554;SDS011;6343;50.868;4.700;2022-11-15T04:41:40;11.53;;;8.07;;
12554;SDS011;6343;50.868;4.700;2022-11-15T04:44:06;10.80;;;7.00;;
12554;SDS011;6343;50.868;4.700;2022-11-15T04:46:32;9.20;;;6.77;;
12554;SDS011;6343;50.868;4.700;2022-11-15T04:48:58;12.90;;;7.30;;
12554;SDS011;6343;50.868;4.700;2022-11-15T04:51:25;10.83;;;7.07;;
12554;SDS011;6343;50.868;4.700;2022-11-15T04:53:51;10.10;;;7.00;;
12554;SDS011;6343;50.868;4.700;2022-11-15T04:56:17;12.07;;;7.60;;
12554;SDS011;6343;50.868;4.700;2022-11-15T04:58:43;11.97;;;6.70;;
12554;SDS011;6343;50.868;4.700;2022-11-15T05:01:10;11.63;;;6.63;;
12554;SDS011;6343;50.868;4.700;2022-11-15T05:03:37;10.07;;;6.57;;
12554;SDS011;6343;50.868;4.700;2022-11-15T05:06:21;9.90;;;6.20;;
12554;SDS011;6343;50.868;4.700;2022-11-15T05:08:48;12.37;;;6.80;;
12554;SDS011;6343;50.868;4.700;2022-11-15T05:11:14;12.33;;;6.03;;
12554;SDS011;6343;50.868;4.700;2022-11-15T05:13:40;12.43;;;5.77;;
12554;SDS011;6343;50.868;4.700;2022-11-15T05:16:06;12.83;;;6.47;;
12554;SDS011;6343;50.868;4.700;2022-11-15T05:18:32;11.20;;;6.00;;
12554;SDS011;6343;50.868;4.700;2022-11-15T05:21:08;12.90;;;5.77;;
12554;SDS011;6343;50.868;4.700;2022-11-15T05:23:34;10.27;;;5.93;;
12554;SDS011;6343;50.868;4.700;2022-11-15T05:26:01;8.63;;;5.87;;
12554;SDS011;6343;50.868;4.700;2022-11-15T05:28:28;11.10;;;6.30;;
12554;SDS011;6343;50.868;4.700;2022-11-15T05:31:00;8.33;;;5.57;;
12554;SDS011;6343;50.868;4.700;2022-11-15T05:33:26;9.30;;;5.43;;
12554;SDS011;6343;50.868;4.700;2022-11-15T05:35:54;10.00;;;5.57;;
12554;SDS011;6343;50.868;4.700;2022-11-15T05:38:23;9.33;;;5.40;;
12554;SDS011;6343;50.868;4.700;2022-11-15T05:40:49;9.87;;;5.47;;
12554;SDS011;6343;50.868;4.700;2022-11-15T05:43:15;7.57;;;5.47;;
12554;SDS011;6343;50.868;4.700;2022-11-15T05:45:41;9.67;;;5.20;;
12554;SDS011;6343;50.868;4.700;2022-11-15T05:48:07;8.97;;;5.33;;
12554;SDS011;6343;50.868;4.700;2022-11-15T05:50:35;10.00;;;5.40;;
12554;SDS011;6343;50.868;4.700;2022-11-15T05:53:02;11.77;;;5.67;;
12554;SDS011;6343;50.868;4.700;2022-11-15T05:55:28;8.87;;;5.47;;
12554;SDS011;6343;50.868;4.700;2022-11-15T05:57:54;8.10;;;5.17;;
12554;SDS011;6343;50.868;4.700;2022-11-15T06:00:20;9.10;;;6.00;;
12554;SDS011;6343;50.868;4.700;2022-11-15T06:02:46;11.10;;;4.93;;
12554;SDS011;6343;50.868;4.700;2022-11-15T06:05:12;8.20;;;5.27;;
12554;SDS011;6343;50.868;4.700;2022-11-15T06:07:38;8.30;;;5.40;;
12554;SDS011;6343;50.868;4.700;2022-11-15T06:10:05;8.27;;;5.37;;
12554;SDS011;6343;50.868;4.700;2022-11-15T06:12:31;10.20;;;5.83;;
12554;SDS011;6343;50.868;4.700;2022-11-15T06:14:57;12.80;;;5.43;;
12554;SDS011;6343;50.868;4.700;2022-11-15T06:17:23;11.57;;;4.87;;
12554;SDS011;6343;50.868;4.700;2022-11-15T06:19:49;8.70;;;5.53;;
12554;SDS011;6343;50.868;4.700;2022-11-15T06:22:15;9.93;;;4.70;;
12554;SDS011;6343;50.868;4.700;2022-11-15T06:24:41;8.97;;;4.90;;
12554;SDS011;6343;50.868;4.700;2022-11-15T06:27:08;8.50;;;5.40;;
12554;SDS011;6343;50.868;4.700;2022-11-15T06:29:34;11.87;;;5.83;;
12554;SDS011;6343;50.868;4.700;2022-11-15T06:32:01;7.30;;;5.73;;
12554;SDS011;6343;50.868;4.700;2022-11-15T06:34:27;8.90;;;5.47;;
12554;SDS011;6343;50.868;4.700;2022-11-15T06:36:53;15.33;;;6.43;;
12554;SDS011;6343;50.868;4.700;2022-11-15T06:39:19;9.57;;;5.93;;
12554;SDS011;6343;50.868;4.700;2022-11-15T06:41:45;8.03;;;5.07;;
12554;SDS011;6343;50.868;4.700;2022-11-15T06:44:11;8.33;;;6.07;;
12554;SDS011;6343;50.868;4.700;2022-11-15T06:46:37;10.17;;;5.27;;
12554;SDS011;6343;50.868;4.700;2022-11-15T06:49:03;8.43;;;5.43;;
12554;SDS011;6343;50.868;4.700;2022-11-15T06:51:29;9.57;;;5.60;;
12554;SDS011;6343;50.868;4.700;2022-11-15T06:53:55;13.10;;;5.97;;
12554;SDS011;6343;50.868;4.700;2022-11-15T06:56:21;12.80;;;5.47;;
12554;SDS011;6343;50.868;4.700;2022-11-15T06:58:47;12.43;;;6.10;;
12554;SDS011;6343;50.868;4.700;2022-11-15T07:01:13;12.70;;;5.27;;
12554;SDS011;6343;50.868;4.700;2022-11-15T07:03:40;7.43;;;5.30;;
12554;SDS011;6343;50.868;4.700;2022-11-15T07:06:07;6.93;;;5.40;;
12554;SDS011;6343;50.868;4.700;2022-11-15T07:08:33;9.93;;;4.67;;
12554;SDS011;6343;50.868;4.700;2022-11-15T07:11:03;9.17;;;5.07;;
12554;SDS011;6343;50.868;4.700;2022-11-15T07:13:30;10.00;;;6.20;;
12554;SDS011;6343;50.868;4.700;2022-11-15T07:16:03;7.97;;;4.40;;
12554;SDS011;6343;50.868;4.700;2022-11-15T07:18:30;11.20;;;5.00;;
12554;SDS011;6343;50.868;4.700;2022-11-15T07:20:59;9.00;;;5.30;;
12554;SDS011;6343;50.868;4.700;2022-11-15T07:23:25;10.00;;;5.10;;
12554;SDS011;6343;50.868;4.700;2022-11-15T07:25:51;6.50;;;4.53;;
12554;SDS011;6343;50.868;4.700;2022-11-15T07:28:17;7.87;;;4.47;;
12554;SDS011;6343;50.868;4.700;2022-11-15T07:30:43;8.10;;;3.80;;
12554;SDS011;6343;50.868;4.700;2022-11-15T07:33:09;7.13;;;4.77;;
12554;SDS011;6343;50.868;4.700;2022-11-15T07:35:35;6.87;;;4.20;;
12554;SDS011;6343;50.868;4.700;2022-11-15T07:38:02;6.60;;;3.33;;
12554;SDS011;6343;50.868;4.700;2022-11-15T07:40:29;9.63;;;3.70;;
12554;SDS011;6343;50.868;4.700;2022-11-15T07:43:03;7.03;;;3.67;;
12554;SDS011;6343;50.868;4.700;2022-11-15T07:45:29;7.50;;;3.60;;
12554;SDS011;6343;50.868;4.700;2022-11-15T07:47:55;6.23;;;3.20;;
12554;SDS011;6343;50.868;4.700;2022-11-15T07:50:22;6.33;;;3.43;;
12554;SDS011;6343;50.868;4.700;2022-11-15T07:52:53;6.23;;;3.20;;
12554;SDS011;6343;50.868;4.700;2022-11-15T07:55:19;8.60;;;3.43;;
12554;SDS011;6343;50.868;4.700;2022-11-15T07:57:46;6.23;;;3.17;;
12554;SDS011;6343;50.868;4.700;2022-11-15T08:00:12;7.00;;;3.47;;
12554;SDS011;6343;50.868;4.700;2022-11-15T08:02:38;6.47;;;2.97;;
12554;SDS011;6343;50.868;4.700;2022-11-15T08:05:04;6.63;;;2.80;;
12554;SDS011;6343;50.868;4.700;2022-11-15T08:07:30;12.73;;;3.13;;
12554;SDS011;6343;50.868;4.700;2022-11-15T08:09:57;6.00;;;3.20;;
12554;SDS011;6343;50.868;4.700;2022-11-15T08:12:23;10.33;;;3.33;;
12554;SDS011;6343;50.868;4.700;2022-11-15T08:14:49;5.27;;;2.97;;
12554;SDS011;6343;50.868;4.700;2022-11-15T08:17:15;5.03;;;2.87;;
12554;SDS011;6343;50.868;4.700;2022-11-15T08:19:41;6.27;;;3.03;;
12554;SDS011;6343;50.868;4.700;2022-11-15T08:22:08;5.80;;;2.63;;
12554;SDS011;6343;50.868;4.700;2022-11-15T08:24:34;3.80;;;2.10;;
12554;SDS011;6343;50.868;4.700;2022-11-15T08:27:00;4.30;;;2.03;;
12554;SDS011;6343;50.868;4.700;2022-11-15T08:29:26;4.80;;;2.10;;
12554;SDS011;6343;50.868;4.700;2022-11-15T08:31:54;7.13;;;2.20;;
12554;SDS011;6343;50.868;4.700;2022-11-15T08:34:21;6.37;;;1.80;;
12554;SDS011;6343;50.868;4.700;2022-11-15T08:36:47;6.57;;;1.53;;
12554;SDS011;6343;50.868;4.700;2022-11-15T08:39:13;6.07;;;2.10;;
12554;SDS011;6343;50.868;4.700;2022-11-15T08:41:39;4.67;;;1.43;;
12554;SDS011;6343;50.868;4.700;2022-11-15T08:44:05;4.13;;;1.40;;
12554;SDS011;6343;50.868;4.700;2022-11-15T08:46:31;3.20;;;1.20;;
12554;SDS011;6343;50.868;4.700;2022-11-15T08:48:57;5.03;;;1.50;;
12554;SDS011;6343;50.868;4.700;2022-11-15T08:51:23;4.20;;;1.43;;
12554;SDS011;6343;50.868;4.700;2022-11-15T08:53:49;6.20;;;1.80;;
12554;SDS011;6343;50.868;4.700;2022-11-15T08:56:15;2.83;;;1.20;;
12554;SDS011;6343;50.868;4.700;2022-11-15T08:58:41;4.70;;;1.30;;
12554;SDS011;6343;50.868;4.700;2022-11-15T09:01:14;2.80;;;1.30;;
12554;SDS011;6343;50.868;4.700;2022-11-15T09:03:41;7.43;;;1.30;;
12554;SDS011;6343;50.868;4.700;2022-11-15T09:06:07;7.20;;;1.80;;
12554;SDS011;6343;50.868;4.700;2022-11-15T09:08:34;6.77;;;1.70;;
12554;SDS011;6343;50.868;4.700;2022-11-15T09:11:07;5.23;;;1.60;;
12554;SDS011;6343;50.868;4.700;2022-11-15T09:13:33;4.50;;;1.37;;
12554;SDS011;6343;50.868;4.700;2022-11-15T09:16:01;3.63;;;1.50;;
12554;SDS011;6343;50.868;4.700;2022-11-15T09:18:28;3.10;;;1.40;;
12554;SDS011;6343;50.868;4.700;2022-11-15T09:20:57;3.80;;;1.57;;
12554;SDS011;6343;50.868;4.700;2022-11-15T09:23:24;4.57;;;1.40;;
12554;SDS011;6343;50.868;4.700;2022-11-15T09:25:50;4.20;;;1.17;;
12554;SDS011;6343;50.868;4.700;2022-11-15T09:28:17;5.63;;;1.50;;
12554;SDS011;6343;50.868;4.700;2022-11-15T09:30:43;3.07;;;1.40;;
12554;SDS011;6343;50.868;4.700;2022-11-15T09:33:10;2.10;;;1.20;;
12554;SDS011;6343;50.868;4.700;2022-11-15T09:35:36;2.67;;;1.47;;
12554;SDS011;6343;50.868;4.700;2022-11-15T09:38:02;6.87;;;1.50;;
12554;SDS011;6343;50.868;4.700;2022-11-15T09:40:29;3.30;;;1.30;;
12554;SDS011;6343;50.868;4.700;2022-11-15T09:45:36;5.03;;;1.50;;
12554;SDS011;6343;50.868;4.700;2022-11-15T09:52:58;4.53;;;1.77;;
12554;SDS011;6343;50.868;4.700;2022-11-15T09:55:38;5.77;;;1.30;;
12554;SDS011;6343;50.868;4.700;2022-11-15T09:58:10;4.67;;;1.40;;
12554;SDS011;6343;50.868;4.700;2022-11-15T10:00:40;3.03;;;1.13;;
12554;SDS011;6343;50.868;4.700;2022-11-15T10:10:43;5.70;;;1.23;;
12554;SDS011;6343;50.868;4.700;2022-11-15T10:16:00;3.43;;;1.30;;
12554;SDS011;6343;50.868;4.700;2022-11-15T10:18:34;2.97;;;1.53;;
12554;SDS011;6343;50.868;4.700;2022-11-15T10:21:20;5.00;;;1.90;;
12554;SDS011;6343;50.868;4.700;2022-11-15T10:23:46;4.50;;;1.93;;
12554;SDS011;6343;50.868;4.700;2022-11-15T10:26:14;4.40;;;1.23;;
12554;SDS011;6343;50.868;4.700;2022-11-15T10:28:41;7.53;;;1.50;;
12554;SDS011;6343;50.868;4.700;2022-11-15T10:31:40;4.57;;;1.63;;
12554;SDS011;6343;50.868;4.700;2022-11-15T10:34:12;5.47;;;2.43;;
12554;SDS011;6343;50.868;4.700;2022-11-15T10:36:39;5.67;;;1.90;;
12554;SDS011;6343;50.868;4.700;2022-11-15T10:39:11;3.87;;;1.53;;
12554;SDS011;6343;50.868;4.700;2022-11-15T10:41:38;4.03;;;1.30;;
12554;SDS011;6343;50.868;4.700;2022-11-15T10:47:04;5.43;;;1.67;;
12554;SDS011;6343;50.868;4.700;2022-11-15T10:49:31;9.70;;;1.77;;
12554;SDS011;6343;50.868;4.700;2022-11-15T10:51:59;5.80;;;1.50;;
12554;SDS011;6343;50.868;4.700;2022-11-15T10:57:12;4.47;;;1.47;;
12554;SDS011;6343;50.868;4.700;2022-11-15T10:59:39;4.47;;;1.20;;
12554;SDS011;6343;50.868;4.700;2022-11-15T11:04:52;4.63;;;1.60;;
12554;SDS011;6343;50.868;4.700;2022-11-15T11:07:23;3.00;;;1.30;;
12554;SDS011;6343;50.868;4.700;2022-11-15T11:09:56;4.10;;;1.43;;
12554;SDS011;6343;50.868;4.700;2022-11-15T11:12:30;7.53;;;1.60;;
12554;SDS011;6343;50.868;4.700;2022-11-15T11:14:57;4.93;;;1.30;;
12554;SDS011;6343;50.868;4.700;2022-11-15T11:17:35;6.03;;;1.37;;
12554;SDS011;6343;50.868;4.700;2022-11-15T11:20:11;6.00;;;1.37;;
12554;SDS011;6343;50.868;4.700;2022-11-15T11:30:23;5.77;;;1.43;;
12554;SDS011;6343;50.868;4.700;2022-11-15T11:33:19;8.80;;;1.70;;
12554;SDS011;6343;50.868;4.700;2022-11-15T11:45:47;5.63;;;1.40;;
12554;SDS011;6343;50.868;4.700;2022-11-15T11:51:05;2.83;;;0.90;;
12554;SDS011;6343;50.868;4.700;2022-11-15T11:56:27;7.33;;;1.50;;
12554;SDS011;6343;50.868;4.700;2022-11-15T11:58:55;3.17;;;1.20;;
12554;SDS011;6343;50.868;4.700;2022-11-15T12:01:23;3.70;;;1.07;;
12554;SDS011;6343;50.868;4.700;2022-11-15T12:17:00;10.33;;;1.77;;
12554;SDS011;6343;50.868;4.700;2022-11-15T12:19:27;4.03;;;1.43;;
12554;SDS011;6343;50.868;4.700;2022-11-15T12:22:03;3.80;;;1.13;;
12554;SDS011;6343;50.868;4.700;2022-11-15T12:24:41;5.93;;;1.43;;
12554;SDS011;6343;50.868;4.700;2022-11-15T12:27:16;4.17;;;1.50;;
12554;SDS011;6343;50.868;4.700;2022-11-15T12:29:44;2.23;;;1.17;;
12554;SDS011;6343;50.868;4.700;2022-11-15T12:32:27;6.17;;;1.37;;
12554;SDS011;6343;50.868;4.700;2022-11-15T12:34:54;3.00;;;1.10;;
12554;SDS011;6343;50.868;4.700;2022-11-15T12:42:41;4.50;;;1.27;;
12554;SDS011;6343;50.868;4.700;2022-11-15T12:58:28;3.90;;;2.03;;
12554;SDS011;6343;50.868;4.700;2022-11-15T13:01:06;7.50;;;4.30;;
12554;SDS011;6343;50.868;4.700;2022-11-15T13:03:32;4.27;;;1.30;;
12554;SDS011;6343;50.868;4.700;2022-11-15T13:06:00;5.00;;;1.40;;
12554;SDS011;6343;50.868;4.700;2022-11-15T13:08:40;5.60;;;1.27;;
12554;SDS011;6343;50.868;4.700;2022-11-15T13:13:53;3.70;;;1.40;;
12554;SDS011;6343;50.868;4.700;2022-11-15T13:16:22;3.10;;;1.10;;
12554;SDS011;6343;50.868;4.700;2022-11-15T13:18:55;4.27;;;1.17;;
12554;SDS011;6343;50.868;4.700;2022-11-15T13:21:23;3.90;;;1.03;;
12554;SDS011;6343;50.868;4.700;2022-11-15T13:24:10;2.80;;;1.03;;
12554;SDS011;6343;50.868;4.700;2022-11-15T13:26:37;2.57;;;1.00;;
12554;SDS011;6343;50.868;4.700;2022-11-15T13:29:04;3.70;;;1.30;;
12554;SDS011;6343;50.868;4.700;2022-11-15T13:31:37;6.03;;;1.40;;
12554;SDS011;6343;50.868;4.700;2022-11-15T13:37:09;4.00;;;1.83;;
12554;SDS011;6343;50.868;4.700;2022-11-15T13:39:37;4.70;;;1.30;;
12554;SDS011;6343;50.868;4.700;2022-11-15T13:42:03;3.47;;;1.53;;
12554;SDS011;6343;50.868;4.700;2022-11-15T13:44:31;1.40;;;1.03;;
12554;SDS011;6343;50.868;4.700;2022-11-15T13:47:01;4.63;;;1.30;;
12554;SDS011;6343;50.868;4.700;2022-11-15T13:49:31;2.00;;;1.07;;
12554;SDS011;6343;50.868;4.700;2022-11-15T13:51:59;4.37;;;1.50;;
12554;SDS011;6343;50.868;4.700;2022-11-15T13:57:05;4.80;;;1.13;;
12554;SDS011;6343;50.868;4.700;2022-11-15T13:59:35;3.93;;;1.00;;
12554;SDS011;6343;50.868;4.700;2022-11-15T14:02:17;3.33;;;1.30;;
12554;SDS011;6343;50.868;4.700;2022-11-15T14:04:50;2.77;;;1.00;;
12554;SDS011;6343;50.868;4.700;2022-11-15T14:07:18;1.60;;;1.20;;
12554;SDS011;6343;50.868;4.700;2022-11-15T14:09:45;2.33;;;1.30;;
12554;SDS011;6343;50.868;4.700;2022-11-15T14:14:50;2.73;;;1.13;;
12554;SDS011;6343;50.868;4.700;2022-11-15T14:17:35;1.97;;;1.07;;
12554;SDS011;6343;50.868;4.700;2022-11-15T14:20:02;3.00;;;1.50;;
12554;SDS011;6343;50.868;4.700;2022-11-15T14:22:55;6.37;;;1.47;;
12554;SDS011;6343;50.868;4.700;2022-11-15T14:25:25;2.97;;;1.20;;
12554;SDS011;6343;50.868;4.700;2022-11-15T14:28:11;2.27;;;1.40;;
12554;SDS011;6343;50.868;4.700;2022-11-15T14:30:38;3.47;;;1.20;;
12554;SDS011;6343;50.868;4.700;2022-11-15T14:35:50;3.40;;;1.40;;
12554;SDS011;6343;50.868;4.700;2022-11-15T14:38:16;3.03;;;1.37;;
12554;SDS011;6343;50.868;4.700;2022-11-15T14:40:43;4.53;;;1.60;;
12554;SDS011;6343;50.868;4.700;2022-11-15T14:43:10;3.00;;;1.20;;
12554;SDS011;6343;50.868;4.700;2022-11-15T14:45:36;2.63;;;1.60;;
12554;SDS011;6343;50.868;4.700;2022-11-15T14:48:02;2.37;;;1.50;;
12554;SDS011;6343;50.868;4.700;2022-11-15T14:50:28;2.40;;;1.40;;
12554;SDS011;6343;50.868;4.700;2022-11-15T14:52:55;1.60;;;1.23;;
12554;SDS011;6343;50.868;4.700;2022-11-15T14:55:22;1.80;;;1.03;;
12554;SDS011;6343;50.868;4.700;2022-11-15T14:57:48;3.03;;;1.60;;
12554;SDS011;6343;50.868;4.700;2022-11-15T15:00:15;2.50;;;1.30;;
12554;SDS011;6343;50.868;4.700;2022-11-15T15:02:42;2.33;;;1.23;;
12554;SDS011;6343;50.868;4.700;2022-11-15T15:05:29;3.63;;;1.50;;
12554;SDS011;6343;50.868;4.700;2022-11-15T15:07:56;2.97;;;1.77;;
12554;SDS011;6343;50.868;4.700;2022-11-15T15:10:22;2.17;;;1.30;;
12554;SDS011;6343;50.868;4.700;2022-11-15T15:12:48;4.53;;;1.40;;
12554;SDS011;6343;50.868;4.700;2022-11-15T15:15:20;1.90;;;1.43;;
12554;SDS011;6343;50.868;4.700;2022-11-15T15:17:47;3.77;;;2.00;;
12554;SDS011;6343;50.868;4.700;2022-11-15T15:20:13;2.47;;;1.50;;
12554;SDS011;6343;50.868;4.700;2022-11-15T15:22:39;3.70;;;1.67;;
12554;SDS011;6343;50.868;4.700;2022-11-15T15:25:23;2.23;;;1.43;;
12554;SDS011;6343;50.868;4.700;2022-11-15T15:27:50;3.20;;;1.27;;
12554;SDS011;6343;50.868;4.700;2022-11-15T15:30:17;2.00;;;1.40;;
12554;SDS011;6343;50.868;4.700;2022-11-15T15:32:43;1.47;;;1.13;;
12554;SDS011;6343;50.868;4.700;2022-11-15T15:35:11;2.50;;;1.43;;
12554;SDS011;6343;50.868;4.700;2022-11-15T15:37:37;2.63;;;1.83;;
12554;SDS011;6343;50.868;4.700;2022-11-15T15:41:04;5.27;;;2.30;;
12554;SDS011;6343;50.868;4.700;2022-11-15T15:43:30;7.47;;;3.93;;
12554;SDS011;6343;50.868;4.700;2022-11-15T15:45:56;6.50;;;2.90;;
12554;SDS011;6343;50.868;4.700;2022-11-15T15:48:22;2.40;;;1.97;;
12554;SDS011;6343;50.868;4.700;2022-11-15T15:50:48;6.27;;;1.90;;
12554;SDS011;6343;50.868;4.700;2022-11-15T15:53:14;2.20;;;1.60;;
12554;SDS011;6343;50.868;4.700;2022-11-15T15:55:40;3.60;;;1.60;;
12554;SDS011;6343;50.868;4.700;2022-11-15T15:58:06;6.00;;;1.73;;
12554;SDS011;6343;50.868;4.700;2022-11-15T16:00:33;3.03;;;1.90;;
12554;SDS011;6343;50.868;4.700;2022-11-15T16:02:59;2.10;;;1.83;;
12554;SDS011;6343;50.868;4.700;2022-11-15T16:05:25;2.53;;;1.70;;
12554;SDS011;6343;50.868;4.700;2022-11-15T16:07:51;3.67;;;2.17;;
12554;SDS011;6343;50.868;4.700;2022-11-15T16:10:27;2.90;;;1.50;;
12554;SDS011;6343;50.868;4.700;2022-11-15T16:12:54;2.63;;;1.97;;
12554;SDS011;6343;50.868;4.700;2022-11-15T16:15:20;3.07;;;1.70;;
12554;SDS011;6343;50.868;4.700;2022-11-15T16:17:48;3.17;;;1.70;;
12554;SDS011;6343;50.868;4.700;2022-11-15T16:23:01;2.33;;;1.60;;
12554;SDS011;6343;50.868;4.700;2022-11-15T16:25:27;2.73;;;1.80;;
12554;SDS011;6343;50.868;4.700;2022-11-15T16:27:53;2.70;;;1.60;;
12554;SDS011;6343;50.868;4.700;2022-11-15T16:30:20;2.67;;;1.53;;
12554;SDS011;6343;50.868;4.700;2022-11-15T16:32:47;3.10;;;2.00;;
12554;SDS011;6343;50.868;4.700;2022-11-15T16:35:14;3.27;;;1.80;;
12554;SDS011;6343;50.868;4.700;2022-11-15T16:37:40;4.57;;;1.90;;
12554;SDS011;6343;50.868;4.700;2022-11-15T16:42:35;1.97;;;1.67;;
12554;SDS011;6343;50.868;4.700;2022-11-15T16:45:01;4.17;;;1.90;;
12554;SDS011;6343;50.868;4.700;2022-11-15T16:47:28;4.63;;;1.80;;
12554;SDS011;6343;50.868;4.700;2022-11-15T16:49:54;2.37;;;1.70;;
12554;SDS011;6343;50.868;4.700;2022-11-15T16:52:20;4.17;;;2.40;;
12554;SDS011;6343;50.868;4.700;2022-11-15T16:54:46;3.97;;;2.33;;
12554;SDS011;6343;50.868;4.700;2022-11-15T16:57:12;4.10;;;1.93;;
12554;SDS011;6343;50.868;4.700;2022-11-15T16:59:38;3.13;;;1.70;;